Haysville, KS

10:01 AM CDT on March 23, 2017 (GMT -0500)
Suncrest | | Change Station
Active Advisory: Wind Advisory Active Notice: Public Information Statement

Elev 1259 ft 37.54 °N, 97.37 °W | Updated 12 seconds ago

Mostly Cloudy
Mostly Cloudy
60.5 °F
Feels Like 60.5 °F
N
9.0
Wind Variable Wind from SSW

Today
High -- | Low -- °F
--% Chance of Precip.
Yesterday
High -- | Low -- °F
Precip. -- in
Pressure 29.94 in
Visibility 10.0 miles
Clouds Overcast 3700 ft
Dew Point 50 °F
Humidity 69%
Rainfall 0.00 in
Snow Depth Not available.
7:27 AM 7:44 PM
Waning Crescent, 23% visible
METAR KIAB 231458Z AUTO 18019KT 10SM OVC037 15/09 A2994 RMK AO2 PK WND 16027/25 SLP139 T01460094 55003
Pressure 29.94 in
Visibility 10.0 miles
Clouds Overcast 3700 ft
Dew Point 50 °F
Humidity 69%
Rainfall 0.00 in
Snow Depth Not available.
7:27 AM 7:44 PM
Waning Crescent, 23% visible
METAR KIAB 231458Z AUTO 18019KT 10SM OVC037 15/09 A2994 RMK AO2 PK WND 16027/25 SLP139 T01460094 55003

Get Your Daily Forecast Email!

Thanks for signing up!

Be on the lookout for a verification email in your inbox.

You'll start receiving severe weather alerts in your inbox..

×

10-Day Weather Forecast

Almanac

Astronomy

Mar. 23, 2017 Rise Set
Actual Time
Civil Twilight
Nautical Twilight
Astronomical Twilight
Moon
Length of Visible Light
Length of Day
Tomorrow will be .
, % of the Moon is Illuminated

Today's Extremes

State Highs State Lows

Community

WunderPhotos

Upload Photos

1,962,540 photos uploaded!

WunderBlog® & News

Nearby

Air Quality

  Air Quality AQ Index Pollutant
Not available.

Snow Depth

Station Depth Elevation

Earthquake Activity

City Distance Mag. Time & Date
Minimum magnitude displayed is 2.5.

Earthquake Activity

City Distance Mag. Time & Date
Minimum magnitude displayed is 2.5.

Coastal Water Temperatures

Place Temperature

Stations

Nearby Weather Stations

Station Location Temp. Windchill Dew Point Humidity Wind Precip. Elev Updated Type
                   

Watches & Warnings

Wind Advisory
Issued: 2:49 AM CDT Mar. 23, 2017 – National Weather Service

... Wind Advisory in effect from noon today to 11 PM CDT this
evening...

The National Weather Service in Wichita has issued a Wind
Advisory... which is in effect from noon today to 11 PM CDT this
evening.

* Winds... south 25 to 35 mph with gusts up to 50 mph.

* Timing... winds will increase by this afternoon, and potentially
be the strongest during the early evening hours.

* Impacts... high profile vehicles prone to the strong wind gusts
should use extra caution, especially on east-west oriented roads and
highways.

Precautionary/preparedness actions...

A Wind Advisory means that sustained winds of at least 30 mph
and/or wind gusts over 45 mph are expected. Winds this strong
can make driving difficult... especially for high profile
vehicles. Use extra caution.



Ketcham